createdAt,value
2022-07-25T00:00:09.771Z,100824.00
2022-07-25T00:02:37.687Z,100823.00
2022-07-25T00:05:05.828Z,100822.00
2022-07-25T00:07:33.097Z,100817.00
2022-07-25T00:10:00.225Z,100820.00
2022-07-25T00:12:27.554Z,100812.00
2022-07-25T00:14:54.684Z,100808.00
2022-07-25T00:17:24.174Z,100820.00
2022-07-25T00:19:51.324Z,100811.00
2022-07-25T00:22:18.614Z,100803.00
2022-07-25T00:24:45.896Z,100797.00
2022-07-25T00:27:13.107Z,100803.00
2022-07-25T00:29:40.587Z,100801.00
2022-07-25T00:32:07.870Z,100797.00
2022-07-25T00:34:35.409Z,100802.00
2022-07-25T00:37:02.669Z,100808.00
2022-07-25T00:39:29.938Z,100797.00
2022-07-25T00:42:00.302Z,100790.00
2022-07-25T00:44:31.142Z,100782.00
2022-07-25T00:46:59.572Z,100794.00
2022-07-25T00:49:28.109Z,100783.00
2022-07-25T00:51:55.980Z,100774.00
2022-07-25T00:54:23.914Z,100770.00
2022-07-25T00:56:51.839Z,100769.00
2022-07-25T00:59:19.351Z,100772.00
2022-07-25T01:01:48.670Z,100773.00
2022-07-25T01:04:17.289Z,100771.00
2022-07-25T01:06:44.943Z,100772.00
2022-07-25T01:09:13.343Z,100774.00
2022-07-25T01:11:40.829Z,100762.00
2022-07-25T01:14:08.326Z,100772.00
2022-07-25T01:16:36.048Z,100767.00
2022-07-25T01:19:04.058Z,100756.00
2022-07-25T01:21:31.181Z,100747.00
2022-07-25T01:23:58.506Z,100752.00
2022-07-25T01:26:25.837Z,100753.00
2022-07-25T01:28:53.005Z,100742.00
2022-07-25T01:31:20.313Z,100745.00
2022-07-25T01:33:47.415Z,100737.00
2022-07-25T01:36:14.788Z,100740.00
2022-07-25T01:38:41.902Z,100741.00
2022-07-25T01:41:09.126Z,100734.00
2022-07-25T01:43:36.388Z,100731.00
2022-07-25T01:46:03.983Z,100721.00
2022-07-25T01:48:31.235Z,100735.00
2022-07-25T01:50:58.612Z,100728.00
2022-07-25T01:53:26.990Z,100735.00
2022-07-25T01:55:54.708Z,100731.00
2022-07-25T01:58:24.648Z,100725.00
2022-07-25T02:00:52.841Z,100723.00
2022-07-25T02:03:32.153Z,100712.00
2022-07-25T02:06:04.737Z,100712.00
2022-07-25T02:08:32.298Z,100716.00
2022-07-25T02:11:01.377Z,100707.00
2022-07-25T02:13:28.607Z,100707.00
2022-07-25T02:15:55.771Z,100706.00
2022-07-25T02:18:23.193Z,100700.00
2022-07-25T02:20:50.570Z,100694.00
2022-07-25T02:23:18.064Z,100692.00
2022-07-25T02:25:45.303Z,100694.00
2022-07-25T02:28:12.605Z,100686.00
2022-07-25T02:30:40.181Z,100685.00
2022-07-25T02:33:07.623Z,100677.00
2022-07-25T02:35:35.010Z,100686.00
2022-07-25T02:38:02.314Z,100677.00
2022-07-25T02:40:29.631Z,100671.00
2022-07-25T02:42:56.724Z,100673.00
2022-07-25T02:45:24.164Z,100660.00
2022-07-25T02:47:51.445Z,100653.00
2022-07-25T02:50:18.706Z,100660.00
2022-07-25T02:52:45.978Z,100649.00
2022-07-25T02:55:18.049Z,100648.00
2022-07-25T02:57:45.304Z,100655.00
2022-07-25T03:00:14.143Z,100652.00
2022-07-25T03:02:41.593Z,100638.00
2022-07-25T03:05:15.126Z,100637.00
2022-07-25T03:07:45.191Z,100640.00
2022-07-25T03:10:14.473Z,100639.00
2022-07-25T03:12:43.987Z,100645.00
2022-07-25T03:15:13.180Z,100641.00
2022-07-25T03:17:40.590Z,100625.00
2022-07-25T03:20:10.035Z,100626.00
2022-07-25T03:22:40.416Z,100626.00
2022-07-25T03:25:15.836Z,100624.00
2022-07-25T03:27:49.554Z,100622.00
2022-07-25T03:30:16.920Z,100623.00
2022-07-25T03:32:44.006Z,100623.00
2022-07-25T03:35:11.154Z,100630.00
2022-07-25T03:37:38.303Z,100617.00
2022-07-25T03:40:06.774Z,100618.00
2022-07-25T03:42:35.654Z,100621.00
2022-07-25T03:45:03.271Z,100621.00
2022-07-25T03:47:30.374Z,100610.00
2022-07-25T03:49:57.971Z,100605.00
2022-07-25T03:52:25.292Z,100604.00
2022-07-25T03:54:52.558Z,100603.00
2022-07-25T03:57:19.816Z,100596.00
2022-07-25T03:59:46.963Z,100589.00
2022-07-25T04:02:14.266Z,100590.00
2022-07-25T04:04:41.523Z,100596.00
2022-07-25T04:07:11.540Z,100589.00
2022-07-25T04:09:38.803Z,100587.00
2022-07-25T04:12:06.559Z,100575.00
2022-07-25T04:14:38.359Z,100581.00
2022-07-25T04:17:06.588Z,100569.00
2022-07-25T04:19:33.794Z,100578.00
2022-07-25T04:22:00.958Z,100577.00
2022-07-25T04:24:28.135Z,100590.00
2022-07-25T04:26:55.446Z,100577.00
2022-07-25T04:29:22.706Z,100574.00
2022-07-25T04:31:50.214Z,100572.00
2022-07-25T04:34:17.466Z,100559.00
2022-07-25T04:36:44.603Z,100569.00
2022-07-25T04:39:14.677Z,100560.00
2022-07-25T04:41:42.010Z,100563.00
2022-07-25T04:44:09.628Z,100557.00
2022-07-25T04:46:43.197Z,100564.00
2022-07-25T04:49:10.547Z,100563.00
2022-07-25T04:51:37.954Z,100549.00
2022-07-25T04:54:11.164Z,100558.00
2022-07-25T04:56:38.565Z,100562.00
2022-07-25T04:59:06.308Z,100564.00
2022-07-25T05:01:37.651Z,100550.00
2022-07-25T05:04:05.305Z,100555.00
2022-07-25T05:06:33.341Z,100547.00
2022-07-25T05:09:00.524Z,100541.00
2022-07-25T05:11:27.630Z,100539.00
2022-07-25T05:13:54.797Z,100544.00
2022-07-25T05:16:22.164Z,100547.00
2022-07-25T05:18:49.508Z,100534.00
2022-07-25T05:21:16.735Z,100536.00
2022-07-25T05:23:44.347Z,100527.00
2022-07-25T05:26:11.633Z,100532.00
2022-07-25T05:28:38.848Z,100535.00
2022-07-25T05:31:08.839Z,100526.00
2022-07-25T05:33:36.142Z,100533.00
2022-07-25T05:36:04.417Z,100534.00
2022-07-25T05:38:31.872Z,100532.00
2022-07-25T05:40:59.017Z,100531.00
2022-07-25T05:43:26.301Z,100529.00
2022-07-25T05:45:53.655Z,100528.00
2022-07-25T05:48:20.791Z,100521.00
2022-07-25T05:50:50.429Z,100508.00
2022-07-25T05:53:17.549Z,100511.00
2022-07-25T05:55:44.844Z,100508.00
2022-07-25T05:58:11.948Z,100540.00
2022-07-25T06:00:39.461Z,100533.00
2022-07-25T06:03:06.564Z,100539.00
2022-07-25T06:05:33.829Z,100554.00
2022-07-25T06:08:00.897Z,100550.00
2022-07-25T06:10:28.313Z,100543.00
2022-07-25T06:12:55.682Z,100558.00
2022-07-25T06:15:26.875Z,100553.00
2022-07-25T06:17:55.168Z,100559.00
2022-07-25T06:20:22.651Z,100549.00
2022-07-25T06:22:56.037Z,100556.00
2022-07-25T06:25:23.472Z,100546.00
2022-07-25T06:27:50.627Z,100541.00
2022-07-25T06:30:21.443Z,100548.00
2022-07-25T06:32:50.116Z,100536.00
2022-07-25T06:35:18.187Z,100546.00
2022-07-25T06:37:47.504Z,100543.00
2022-07-25T06:40:15.530Z,100548.00
2022-07-25T06:42:45.893Z,100543.00
2022-07-25T06:45:19.188Z,100538.00
2022-07-25T06:47:46.755Z,100542.00
2022-07-25T06:50:21.280Z,100536.00
2022-07-25T06:52:49.064Z,100541.00
2022-07-25T06:55:16.930Z,100543.00
2022-07-25T06:57:44.331Z,100526.00
2022-07-25T07:00:13.933Z,100540.00
2022-07-25T07:03:01.482Z,100547.00
2022-07-25T07:05:36.901Z,100551.00
2022-07-25T07:08:05.324Z,100545.00
2022-07-25T07:10:32.800Z,100544.00
2022-07-25T07:13:23.941Z,100539.00
2022-07-25T07:15:52.047Z,100553.00
2022-07-25T07:18:20.622Z,100552.00
2022-07-25T07:20:48.090Z,100550.00
2022-07-25T07:23:16.993Z,100550.00
2022-07-25T07:25:47.401Z,100550.00
2022-07-25T07:28:16.387Z,100550.00
2022-07-25T07:31:15.833Z,100549.00
2022-07-25T07:33:33.690Z,100555.00
2022-07-25T07:36:02.753Z,100569.00
2022-07-25T07:38:30.107Z,100573.00
2022-07-25T07:40:57.412Z,100561.00
2022-07-25T07:43:29.694Z,100562.00
2022-07-25T07:46:01.203Z,100565.00
2022-07-25T07:48:30.963Z,100576.00
2022-07-25T07:50:59.324Z,100587.00
2022-07-25T07:53:46.970Z,100583.00
2022-07-25T07:56:16.065Z,100580.00
2022-07-25T07:58:43.748Z,100567.00
2022-07-25T08:01:12.156Z,100574.00
2022-07-25T08:03:39.419Z,100578.00
2022-07-25T08:06:06.978Z,100587.00
2022-07-25T08:09:14.767Z,100592.00
2022-07-25T08:12:00.744Z,100587.00
2022-07-25T08:14:27.844Z,100580.00
2022-07-25T08:16:57.565Z,100582.00
2022-07-25T08:19:24.698Z,100575.00
2022-07-25T08:21:51.842Z,100578.00
2022-07-25T08:24:18.997Z,100578.00
2022-07-25T08:26:46.155Z,100572.00
2022-07-25T08:29:23.860Z,100573.00
2022-07-25T08:31:54.993Z,100570.00
2022-07-25T08:34:22.783Z,100569.00
2022-07-25T08:36:50.037Z,100579.00
2022-07-25T08:39:17.290Z,100580.00
2022-07-25T08:41:44.721Z,100575.00
2022-07-25T08:44:17.680Z,100583.00
2022-07-25T08:46:46.072Z,100574.00
2022-07-25T08:49:13.727Z,100575.00
2022-07-25T08:51:41.919Z,100568.00
2022-07-25T08:54:10.914Z,100562.00
2022-07-25T08:56:38.406Z,100568.00
2022-07-25T08:59:05.742Z,100572.00
2022-07-25T09:01:34.888Z,100574.00
2022-07-25T09:04:04.252Z,100588.00
2022-07-25T09:06:31.771Z,100582.00
2022-07-25T09:09:01.561Z,100591.00
2022-07-25T09:11:37.675Z,100589.00
2022-07-25T09:14:15.067Z,100588.00
2022-07-25T09:16:45.471Z,100587.00
2022-07-25T09:19:16.276Z,100603.00
2022-07-25T09:21:46.047Z,100599.00
2022-07-25T09:24:17.745Z,100592.00
2022-07-25T09:26:55.802Z,100608.00
2022-07-25T09:29:32.937Z,100610.00
2022-07-25T09:32:02.782Z,100617.00
2022-07-25T09:34:42.377Z,100612.00
2022-07-25T09:37:15.007Z,100599.00
2022-07-25T09:39:51.496Z,100596.00
2022-07-25T09:42:20.079Z,100599.00
2022-07-25T09:45:05.064Z,100600.00
2022-07-25T09:47:37.439Z,100602.00
2022-07-25T09:50:06.678Z,100602.00
2022-07-25T09:52:35.591Z,100604.00
2022-07-25T09:55:06.181Z,100615.00
2022-07-25T09:57:33.467Z,100622.00
2022-07-25T10:00:01.826Z,100620.00
2022-07-25T10:02:48.661Z,100615.00
2022-07-25T10:05:26.758Z,100619.00
2022-07-25T10:07:56.275Z,100622.00
2022-07-25T10:10:37.999Z,100614.00
2022-07-25T10:13:12.236Z,100618.00
2022-07-25T10:15:53.692Z,100611.00
2022-07-25T10:18:26.029Z,100613.00
2022-07-25T10:21:25.645Z,100611.00
2022-07-25T10:24:10.263Z,100620.00
2022-07-25T10:26:40.552Z,100604.00
2022-07-25T10:29:13.327Z,100605.00
2022-07-25T10:31:50.599Z,100612.00
2022-07-25T10:34:35.106Z,100611.00
2022-07-25T10:37:18.564Z,100618.00
2022-07-25T10:39:46.964Z,100611.00
2022-07-25T10:42:17.520Z,100624.00
2022-07-25T10:44:49.071Z,100628.00
2022-07-25T10:47:18.191Z,100619.00
2022-07-25T10:50:14.554Z,100613.00
2022-07-25T10:52:43.128Z,100629.00
2022-07-25T10:55:10.349Z,100630.00
2022-07-25T10:57:54.993Z,100622.00
2022-07-25T11:00:28.765Z,100629.00
2022-07-25T11:02:57.858Z,100630.00
2022-07-25T11:05:25.569Z,100627.00
2022-07-25T11:08:20.159Z,100625.00
2022-07-25T11:10:50.442Z,100629.00
2022-07-25T11:13:17.817Z,100622.00
2022-07-25T11:15:45.741Z,100629.00
2022-07-25T11:18:13.119Z,100629.00
2022-07-25T11:20:40.469Z,100641.00
2022-07-25T11:23:10.320Z,100642.00
2022-07-25T11:25:37.647Z,100647.00
2022-07-25T11:28:05.233Z,100638.00
2022-07-25T11:30:32.637Z,100641.00
2022-07-25T11:33:03.835Z,100644.00
2022-07-25T11:35:33.728Z,100648.00
2022-07-25T11:38:02.970Z,100657.00
2022-07-25T11:40:32.874Z,100649.00
2022-07-25T11:43:00.466Z,100655.00
2022-07-25T11:45:37.350Z,100659.00
2022-07-25T11:48:15.115Z,100659.00
2022-07-25T11:50:46.337Z,100654.00
2022-07-25T11:53:16.825Z,100656.00
2022-07-25T11:55:44.591Z,100675.00
2022-07-25T11:58:14.494Z,100673.00
2022-07-25T12:00:47.379Z,100666.00
2022-07-25T12:03:20.251Z,100680.00
2022-07-25T12:05:49.676Z,100676.00
2022-07-25T12:08:22.706Z,100665.00
2022-07-25T12:10:51.727Z,100677.00
2022-07-25T12:13:30.518Z,100672.00
2022-07-25T12:16:00.025Z,100666.00
2022-07-25T12:18:28.776Z,100667.00
2022-07-25T12:20:56.228Z,100680.00
2022-07-25T12:23:23.464Z,100674.00
2022-07-25T12:25:51.263Z,100671.00
2022-07-25T12:28:18.816Z,100672.00
2022-07-25T12:30:50.556Z,100679.00
2022-07-25T12:33:21.696Z,100688.00
2022-07-25T12:35:48.952Z,100677.00
2022-07-25T12:38:16.231Z,100674.00
2022-07-25T12:40:43.533Z,100678.00
2022-07-25T12:43:10.866Z,100666.00
2022-07-25T12:45:38.163Z,100681.00
2022-07-25T12:48:05.993Z,100685.00
2022-07-25T12:50:33.199Z,100689.00
2022-07-25T12:53:00.593Z,100684.00
2022-07-25T12:55:28.224Z,100671.00
2022-07-25T12:57:55.447Z,100679.00
2022-07-25T13:00:24.348Z,100683.00
2022-07-25T13:02:53.410Z,100687.00
2022-07-25T13:05:24.044Z,100689.00
2022-07-25T13:07:51.726Z,100689.00
2022-07-25T13:10:20.632Z,100688.00
2022-07-25T13:12:47.951Z,100689.00
2022-07-25T13:15:15.718Z,100689.00
2022-07-25T13:17:43.198Z,100681.00
2022-07-25T13:20:11.620Z,100698.00
2022-07-25T13:22:38.835Z,100700.00
2022-07-25T13:25:06.701Z,100706.00
2022-07-25T13:27:33.972Z,100708.00
2022-07-25T13:30:01.162Z,100719.00
2022-07-25T13:32:28.714Z,100717.00
2022-07-25T13:34:56.130Z,100732.00
2022-07-25T13:37:23.530Z,100734.00
2022-07-25T13:39:51.383Z,100738.00
2022-07-25T13:42:18.826Z,100747.00
2022-07-25T13:44:46.259Z,100737.00
2022-07-25T13:47:13.793Z,100734.00
2022-07-25T13:49:41.530Z,100738.00
2022-07-25T13:52:08.934Z,100750.00
2022-07-25T13:54:36.260Z,100758.00
2022-07-25T13:57:04.107Z,100759.00
2022-07-25T13:59:31.665Z,100747.00
2022-07-25T14:01:58.924Z,100762.00
2022-07-25T14:04:26.298Z,100767.00
2022-07-25T14:06:53.899Z,100769.00
2022-07-25T14:09:22.452Z,100777.00
2022-07-25T14:11:49.818Z,100774.00
2022-07-25T14:14:17.627Z,100776.00
2022-07-25T14:16:45.165Z,100790.00
2022-07-25T14:19:12.758Z,100781.00
2022-07-25T14:21:40.189Z,100778.00
2022-07-25T14:24:08.329Z,100790.00
2022-07-25T14:26:35.919Z,100771.00
2022-07-25T14:29:04.336Z,100773.00
2022-07-25T14:31:33.092Z,100762.00
2022-07-25T14:34:00.620Z,100776.00
2022-07-25T14:36:30.583Z,100763.00
2022-07-25T14:38:57.844Z,100770.00
2022-07-25T14:41:26.090Z,100761.00
2022-07-25T14:43:53.416Z,100761.00
2022-07-25T14:46:21.068Z,100758.00
2022-07-25T14:48:48.482Z,100772.00
2022-07-25T14:51:15.904Z,100766.00
2022-07-25T14:53:44.141Z,100762.00
2022-07-25T14:56:12.223Z,100757.00
2022-07-25T14:58:39.647Z,100758.00
2022-07-25T15:01:09.885Z,100758.00
2022-07-25T15:03:38.042Z,100769.00
2022-07-25T15:06:09.911Z,100769.00
2022-07-25T15:08:39.671Z,100758.00
2022-07-25T15:11:07.210Z,100761.00
2022-07-25T15:13:35.015Z,100767.00
2022-07-25T15:16:05.304Z,100767.00
2022-07-25T15:18:42.377Z,100774.00
2022-07-25T15:21:19.764Z,100765.00
2022-07-25T15:23:47.087Z,100768.00
2022-07-25T15:26:14.570Z,100772.00
2022-07-25T15:28:41.734Z,100778.00
2022-07-25T15:31:09.051Z,100767.00
2022-07-25T15:33:36.421Z,100756.00
2022-07-25T15:36:04.708Z,100757.00
2022-07-25T15:38:32.052Z,100758.00
2022-07-25T15:40:59.753Z,100776.00
2022-07-25T15:43:27.694Z,100779.00
2022-07-25T15:45:55.145Z,100772.00
2022-07-25T15:48:23.813Z,100768.00
2022-07-25T15:50:55.998Z,100781.00
2022-07-25T15:53:24.108Z,100764.00
2022-07-25T15:55:51.657Z,100772.00
2022-07-25T15:58:19.087Z,100778.00
2022-07-25T16:00:46.497Z,100787.00
2022-07-25T16:03:14.053Z,100785.00
2022-07-25T16:05:43.635Z,100783.00
2022-07-25T16:08:11.224Z,100783.00
2022-07-25T16:10:39.134Z,100775.00
2022-07-25T16:13:06.550Z,100774.00
2022-07-25T16:15:33.959Z,100787.00
2022-07-25T16:18:03.128Z,100777.00
2022-07-25T16:20:32.275Z,100788.00
2022-07-25T16:23:00.837Z,100778.00
2022-07-25T16:25:29.905Z,100771.00
2022-07-25T16:27:59.001Z,100773.00
2022-07-25T16:30:27.456Z,100763.00
2022-07-25T16:32:55.027Z,100773.00
2022-07-25T16:35:22.612Z,100772.00
2022-07-25T16:37:49.916Z,100775.00
2022-07-25T16:40:17.322Z,100774.00
2022-07-25T16:42:44.690Z,100775.00
2022-07-25T16:45:12.151Z,100780.00
2022-07-25T16:47:41.150Z,100782.00
2022-07-25T16:50:08.835Z,100773.00
2022-07-25T16:52:36.029Z,100776.00
2022-07-25T16:55:03.853Z,100783.00
2022-07-25T16:57:31.820Z,100786.00
2022-07-25T17:00:00.836Z,100784.00
2022-07-25T17:02:29.841Z,100793.00
2022-07-25T17:04:57.777Z,100781.00
2022-07-25T17:07:26.374Z,100793.00
2022-07-25T17:09:54.056Z,100814.00
2022-07-25T17:12:21.837Z,100802.00
2022-07-25T17:14:49.141Z,100801.00
2022-07-25T17:17:16.510Z,100810.00
2022-07-25T17:19:44.152Z,100818.00
2022-07-25T17:22:12.074Z,100815.00
2022-07-25T17:24:40.224Z,100825.00
2022-07-25T17:27:10.634Z,100834.00
2022-07-25T17:29:38.063Z,100821.00
2022-07-25T17:32:08.837Z,100836.00
2022-07-25T17:34:36.253Z,100836.00
2022-07-25T17:37:03.705Z,100831.00
2022-07-25T17:39:32.529Z,100830.00
2022-07-25T17:42:00.237Z,100845.00
2022-07-25T17:44:27.559Z,100835.00
2022-07-25T17:46:58.527Z,100850.00
2022-07-25T17:49:25.936Z,100856.00
2022-07-25T17:51:54.263Z,100852.00
2022-07-25T17:54:21.780Z,100860.00
2022-07-25T17:56:49.411Z,100854.00
2022-07-25T17:59:16.836Z,100864.00
2022-07-25T18:01:44.571Z,100873.00
2022-07-25T18:04:12.223Z,100864.00
2022-07-25T18:06:39.516Z,100874.00
2022-07-25T18:09:09.294Z,100861.00
2022-07-25T18:11:36.814Z,100874.00
2022-07-25T18:14:04.416Z,100869.00
2022-07-25T18:16:51.832Z,100884.00
2022-07-25T18:19:19.162Z,100883.00
2022-07-25T18:21:47.966Z,100896.00
2022-07-25T18:24:15.277Z,100899.00
2022-07-25T18:26:43.554Z,100884.00
2022-07-25T18:29:11.303Z,100885.00
2022-07-25T18:31:38.725Z,100886.00
2022-07-25T18:34:06.637Z,100886.00
2022-07-25T18:36:34.773Z,100889.00
2022-07-25T18:39:02.002Z,100899.00
2022-07-25T18:41:30.258Z,100888.00
2022-07-25T18:43:58.621Z,100894.00
2022-07-25T18:46:30.443Z,100890.00
2022-07-25T18:48:59.271Z,100892.00
2022-07-25T18:51:28.127Z,100899.00
2022-07-25T18:53:55.701Z,100895.00
2022-07-25T18:56:23.530Z,100896.00
2022-07-25T18:58:51.373Z,100903.00
2022-07-25T19:01:21.581Z,100903.00
2022-07-25T19:03:50.054Z,100906.00
2022-07-25T19:06:17.654Z,100898.00
2022-07-25T19:08:46.460Z,100912.00
2022-07-25T19:11:14.621Z,100898.00
2022-07-25T19:13:50.007Z,100903.00
2022-07-25T19:16:18.584Z,100912.00
2022-07-25T19:19:23.465Z,100919.00
2022-07-25T19:21:51.175Z,100906.00
2022-07-25T19:24:18.518Z,100905.00
2022-07-25T19:26:47.870Z,100919.00
2022-07-25T19:29:19.294Z,100914.00
2022-07-25T19:31:47.230Z,100919.00
2022-07-25T19:34:14.759Z,100917.00
2022-07-25T19:36:46.144Z,100922.00
2022-07-25T19:39:13.972Z,100922.00
2022-07-25T19:41:46.729Z,100927.00
2022-07-25T19:44:15.253Z,100931.00
2022-07-25T19:46:42.763Z,100936.00
2022-07-25T19:49:10.364Z,100930.00
2022-07-25T19:51:37.675Z,100934.00
2022-07-25T19:54:08.576Z,100932.00
2022-07-25T19:56:36.184Z,100944.00
2022-07-25T19:59:04.412Z,100943.00
2022-07-25T20:01:35.768Z,100954.00
2022-07-25T20:05:08.324Z,100947.00
2022-07-25T20:07:35.823Z,100954.00
2022-07-25T20:10:04.704Z,100948.00
2022-07-25T20:12:34.672Z,100959.00
2022-07-25T20:15:03.019Z,100950.00
2022-07-25T20:17:37.342Z,100946.00
2022-07-25T20:20:07.926Z,100957.00
2022-07-25T20:22:38.599Z,100973.00
2022-07-25T20:25:09.939Z,100974.00
2022-07-25T20:27:37.530Z,100960.00
2022-07-25T20:30:08.550Z,100968.00
2022-07-25T20:32:36.010Z,100974.00
2022-07-25T20:35:04.542Z,100967.00
2022-07-25T20:37:35.816Z,100957.00
2022-07-25T20:40:04.916Z,100963.00
2022-07-25T20:42:33.257Z,100961.00
2022-07-25T20:45:02.420Z,100965.00
2022-07-25T20:47:30.140Z,100969.00
2022-07-25T20:50:03.678Z,100973.00
2022-07-25T20:52:39.536Z,100971.00
2022-07-25T20:55:10.814Z,100972.00
2022-07-25T20:57:50.465Z,100984.00
2022-07-25T21:00:18.509Z,100988.00
2022-07-25T21:02:45.914Z,100990.00
2022-07-25T21:05:16.507Z,100996.00
2022-07-25T21:07:51.573Z,100991.00
2022-07-25T21:10:22.830Z,100988.00
2022-07-25T21:13:06.531Z,100994.00
2022-07-25T21:15:56.688Z,100998.00
2022-07-25T21:18:24.122Z,100995.00
2022-07-25T21:21:12.454Z,100999.00
2022-07-25T21:23:40.991Z,101001.00
2022-07-25T21:28:49.272Z,101011.00
2022-07-25T21:31:18.462Z,101012.00
2022-07-25T21:33:45.840Z,101011.00
2022-07-25T21:36:13.268Z,101002.00
2022-07-25T21:38:40.556Z,100995.00
2022-07-25T21:41:08.559Z,101008.00
2022-07-25T21:43:40.608Z,101008.00
2022-07-25T21:49:40.698Z,101022.00
2022-07-25T21:52:14.652Z,101021.00
2022-07-25T21:54:43.799Z,101028.00
2022-07-25T21:57:26.684Z,101019.00
2022-07-25T21:59:54.178Z,101023.00
2022-07-25T22:02:30.116Z,101024.00
2022-07-25T22:04:57.503Z,101030.00
2022-07-25T22:07:25.405Z,101015.00
2022-07-25T22:09:52.884Z,101026.00
2022-07-25T22:12:20.452Z,101028.00
2022-07-25T22:14:49.249Z,101022.00
2022-07-25T22:17:16.734Z,101020.00
2022-07-25T22:20:21.972Z,101034.00
2022-07-25T22:22:49.931Z,101034.00
2022-07-25T22:25:18.388Z,101034.00
2022-07-25T22:27:45.697Z,101043.00
2022-07-25T22:30:19.438Z,101042.00
2022-07-25T22:32:48.862Z,101038.00
2022-07-25T22:35:16.772Z,101032.00
2022-07-25T22:37:46.194Z,101048.00
2022-07-25T22:40:15.120Z,101041.00
2022-07-25T22:42:42.497Z,101045.00
2022-07-25T22:45:11.256Z,101047.00
2022-07-25T22:47:39.611Z,101056.00
2022-07-25T22:50:08.025Z,101044.00
2022-07-25T22:52:35.629Z,101057.00
2022-07-25T22:55:03.193Z,101066.00
2022-07-25T22:57:36.667Z,101058.00
2022-07-25T23:00:10.008Z,101067.00
2022-07-25T23:02:38.450Z,101055.00
2022-07-25T23:05:09.271Z,101064.00
2022-07-25T23:07:36.537Z,101061.00
2022-07-25T23:10:06.139Z,101064.00
2022-07-25T23:12:33.634Z,101072.00
2022-07-25T23:15:01.185Z,101063.00
2022-07-25T23:17:28.662Z,101068.00
2022-07-25T23:19:56.970Z,101066.00
2022-07-25T23:22:26.771Z,101064.00
2022-07-25T23:24:55.677Z,101067.00
2022-07-25T23:27:23.947Z,101071.00
2022-07-25T23:29:53.117Z,101063.00
2022-07-25T23:32:21.212Z,101066.00
2022-07-25T23:34:48.637Z,101069.00
2022-07-25T23:37:17.572Z,101073.00
2022-07-25T23:39:44.822Z,101078.00
2022-07-25T23:42:13.005Z,101072.00
2022-07-25T23:44:44.433Z,101061.00
2022-07-25T23:47:11.911Z,101074.00
2022-07-25T23:49:43.701Z,101063.00
2022-07-25T23:52:14.854Z,101062.00
2022-07-25T23:54:42.381Z,101062.00
2022-07-25T23:57:13.694Z,101069.00
2022-07-25T23:59:41.071Z,101075.00
